sensor_id;sensor_type;location;lat;lon;timestamp;temperature;humidity
2999;DHT22;1509;51.964;7.628;2023-01-26T00:01:59;-1.70;99.90
2999;DHT22;1509;51.964;7.628;2023-01-26T00:04:27;-1.80;99.90
2999;DHT22;1509;51.964;7.628;2023-01-26T00:06:53;-1.80;99.90
2999;DHT22;1509;51.964;7.628;2023-01-26T00:09:19;-1.80;99.90
2999;DHT22;1509;51.964;7.628;2023-01-26T00:11:44;-1.90;99.90
2999;DHT22;1509;51.964;7.628;2023-01-26T00:14:10;-1.90;99.90
2999;DHT22;1509;51.964;7.628;2023-01-26T00:16:35;-1.90;99.90
2999;DHT22;1509;51.964;7.628;2023-01-26T00:19:01;-1.80;99.90
2999;DHT22;1509;51.964;7.628;2023-01-26T00:23:53;-1.80;99.90
2999;DHT22;1509;51.964;7.628;2023-01-26T00:26:23;-1.80;99.90
2999;DHT22;1509;51.964;7.628;2023-01-26T00:28:50;-1.80;99.90
2999;DHT22;1509;51.964;7.628;2023-01-26T00:31:18;-1.80;99.90
2999;DHT22;1509;51.964;7.628;2023-01-26T00:33:45;-1.80;99.90
2999;DHT22;1509;51.964;7.628;2023-01-26T00:36:10;-1.80;99.90
2999;DHT22;1509;51.964;7.628;2023-01-26T00:38:38;-1.80;99.90
2999;DHT22;1509;51.964;7.628;2023-01-26T00:41:04;-1.70;99.90
2999;DHT22;1509;51.964;7.628;2023-01-26T00:43:30;-1.70;99.90
2999;DHT22;1509;51.964;7.628;2023-01-26T00:45:58;-1.70;99.90
2999;DHT22;1509;51.964;7.628;2023-01-26T00:48:24;-1.80;99.90
2999;DHT22;1509;51.964;7.628;2023-01-26T00:50:50;-1.80;99.90
2999;DHT22;1509;51.964;7.628;2023-01-26T00:53:16;-1.80;99.90
2999;DHT22;1509;51.964;7.628;2023-01-26T00:58:08;-1.70;99.90
2999;DHT22;1509;51.964;7.628;2023-01-26T01:00:36;-1.60;99.90
2999;DHT22;1509;51.964;7.628;2023-01-26T01:03:02;-1.70;99.90
2999;DHT22;1509;51.964;7.628;2023-01-26T01:05:30;-1.70;99.90
2999;DHT22;1509;51.964;7.628;2023-01-26T01:07:56;-1.60;99.90
2999;DHT22;1509;51.964;7.628;2023-01-26T01:10:22;-1.60;99.90
2999;DHT22;1509;51.964;7.628;2023-01-26T01:15:14;-1.70;99.90
2999;DHT22;1509;51.964;7.628;2023-01-26T01:17:40;-1.80;99.90
2999;DHT22;1509;51.964;7.628;2023-01-26T01:20:07;-1.80;99.90
2999;DHT22;1509;51.964;7.628;2023-01-26T01:24:59;-1.60;99.90
2999;DHT22;1509;51.964;7.628;2023-01-26T01:27:28;-1.60;99.90
2999;DHT22;1509;51.964;7.628;2023-01-26T01:29:54;-1.60;99.90
2999;DHT22;1509;51.964;7.628;2023-01-26T01:32:22;-1.50;99.90
2999;DHT22;1509;51.964;7.628;2023-01-26T01:34:49;-1.50;99.90
2999;DHT22;1509;51.964;7.628;2023-01-26T01:37:16;-1.50;99.90
2999;DHT22;1509;51.964;7.628;2023-01-26T01:39:41;-1.50;99.90
2999;DHT22;1509;51.964;7.628;2023-01-26T01:42:07;-1.60;99.90
2999;DHT22;1509;51.964;7.628;2023-01-26T01:44:35;-1.50;99.90
2999;DHT22;1509;51.964;7.628;2023-01-26T01:47:06;-1.50;99.90
2999;DHT22;1509;51.964;7.628;2023-01-26T01:49:46;-1.40;99.90
2999;DHT22;1509;51.964;7.628;2023-01-26T01:52:14;-1.60;99.90
2999;DHT22;1509;51.964;7.628;2023-01-26T01:54:55;-1.60;99.90
2999;DHT22;1509;51.964;7.628;2023-01-26T01:57:28;-1.70;99.90
2999;DHT22;1509;51.964;7.628;2023-01-26T02:00:04;-1.70;99.90
2999;DHT22;1509;51.964;7.628;2023-01-26T02:02:30;-1.70;99.90
2999;DHT22;1509;51.964;7.628;2023-01-26T02:04:59;-1.60;99.90
2999;DHT22;1509;51.964;7.628;2023-01-26T02:09:56;-1.50;99.90
2999;DHT22;1509;51.964;7.628;2023-01-26T02:12:41;-1.40;99.90
2999;DHT22;1509;51.964;7.628;2023-01-26T02:15:07;-1.40;99.90
2999;DHT22;1509;51.964;7.628;2023-01-26T02:17:33;-1.40;99.90
2999;DHT22;1509;51.964;7.628;2023-01-26T02:28:06;-1.30;99.90
2999;DHT22;1509;51.964;7.628;2023-01-26T02:30:33;-1.40;99.90
2999;DHT22;1509;51.964;7.628;2023-01-26T02:35:24;-1.30;99.90
2999;DHT22;1509;51.964;7.628;2023-01-26T02:37:50;-1.30;99.90
2999;DHT22;1509;51.964;7.628;2023-01-26T02:43:01;-1.40;99.90
2999;DHT22;1509;51.964;7.628;2023-01-26T02:45:28;-1.50;99.90
2999;DHT22;1509;51.964;7.628;2023-01-26T02:47:54;-1.50;99.90
2999;DHT22;1509;51.964;7.628;2023-01-26T02:50:20;-1.40;99.90
2999;DHT22;1509;51.964;7.628;2023-01-26T02:52:46;-1.30;99.90
2999;DHT22;1509;51.964;7.628;2023-01-26T02:55:11;-1.30;99.90
2999;DHT22;1509;51.964;7.628;2023-01-26T02:58:00;-1.30;99.90
2999;DHT22;1509;51.964;7.628;2023-01-26T03:00:34;-1.30;99.90
2999;DHT22;1509;51.964;7.628;2023-01-26T03:03:27;-1.30;99.90
2999;DHT22;1509;51.964;7.628;2023-01-26T03:06:10;-1.20;99.90
2999;DHT22;1509;51.964;7.628;2023-01-26T03:08:37;-1.20;99.90
2999;DHT22;1509;51.964;7.628;2023-01-26T03:11:04;-1.20;99.90
2999;DHT22;1509;51.964;7.628;2023-01-26T03:13:30;-1.10;99.90
2999;DHT22;1509;51.964;7.628;2023-01-26T03:15:55;-1.20;99.90
2999;DHT22;1509;51.964;7.628;2023-01-26T03:18:27;-1.20;99.90
2999;DHT22;1509;51.964;7.628;2023-01-26T03:21:14;-1.20;99.90
2999;DHT22;1509;51.964;7.628;2023-01-26T03:26:44;-1.30;99.90
2999;DHT22;1509;51.964;7.628;2023-01-26T03:29:29;-1.20;99.90
2999;DHT22;1509;51.964;7.628;2023-01-26T03:31:55;-1.20;99.90
2999;DHT22;1509;51.964;7.628;2023-01-26T03:34:21;-1.20;99.90
2999;DHT22;1509;51.964;7.628;2023-01-26T03:36:47;-1.20;99.90
2999;DHT22;1509;51.964;7.628;2023-01-26T03:39:13;-1.20;99.90
2999;DHT22;1509;51.964;7.628;2023-01-26T03:41:59;-1.10;99.90
2999;DHT22;1509;51.964;7.628;2023-01-26T03:44:43;-1.20;99.90
2999;DHT22;1509;51.964;7.628;2023-01-26T03:50:11;-1.10;99.90
2999;DHT22;1509;51.964;7.628;2023-01-26T03:52:55;-1.10;99.90
2999;DHT22;1509;51.964;7.628;2023-01-26T03:55:39;-1.10;99.90
2999;DHT22;1509;51.964;7.628;2023-01-26T04:00:55;-1.00;99.90
2999;DHT22;1509;51.964;7.628;2023-01-26T04:03:20;-1.00;99.90
2999;DHT22;1509;51.964;7.628;2023-01-26T04:06:04;-0.90;99.90
2999;DHT22;1509;51.964;7.628;2023-01-26T04:08:49;-0.90;99.90
2999;DHT22;1509;51.964;7.628;2023-01-26T04:11:15;-0.90;99.90
2999;DHT22;1509;51.964;7.628;2023-01-26T04:13:41;-0.90;99.90
2999;DHT22;1509;51.964;7.628;2023-01-26T04:19:09;-0.90;99.90
2999;DHT22;1509;51.964;7.628;2023-01-26T04:21:54;-0.80;99.90
2999;DHT22;1509;51.964;7.628;2023-01-26T04:24:19;-0.90;99.90
2999;DHT22;1509;51.964;7.628;2023-01-26T04:26:46;-0.80;99.90
2999;DHT22;1509;51.964;7.628;2023-01-26T04:29:13;-0.80;99.90
2999;DHT22;1509;51.964;7.628;2023-01-26T04:31:40;-0.80;99.90
2999;DHT22;1509;51.964;7.628;2023-01-26T04:36:35;-0.80;99.90
2999;DHT22;1509;51.964;7.628;2023-01-26T04:39:03;-0.80;99.90
2999;DHT22;1509;51.964;7.628;2023-01-26T04:41:32;-0.80;99.90
2999;DHT22;1509;51.964;7.628;2023-01-26T04:43:58;-0.90;99.90
2999;DHT22;1509;51.964;7.628;2023-01-26T04:46:24;-0.90;99.90
2999;DHT22;1509;51.964;7.628;2023-01-26T04:48:50;-1.00;99.90
2999;DHT22;1509;51.964;7.628;2023-01-26T04:51:18;-0.90;99.90
2999;DHT22;1509;51.964;7.628;2023-01-26T04:53:45;-0.90;99.90
2999;DHT22;1509;51.964;7.628;2023-01-26T04:59:02;-0.90;99.90
2999;DHT22;1509;51.964;7.628;2023-01-26T05:06:20;-0.90;99.90
2999;DHT22;1509;51.964;7.628;2023-01-26T05:08:45;-0.80;99.90
2999;DHT22;1509;51.964;7.628;2023-01-26T05:11:11;-0.80;99.90
2999;DHT22;1509;51.964;7.628;2023-01-26T05:13:40;-0.80;99.90
2999;DHT22;1509;51.964;7.628;2023-01-26T05:16:06;-0.70;99.90
2999;DHT22;1509;51.964;7.628;2023-01-26T05:18:32;-0.70;99.90
2999;DHT22;1509;51.964;7.628;2023-01-26T05:20:57;-0.70;99.90
2999;DHT22;1509;51.964;7.628;2023-01-26T05:25:49;-0.70;99.90
2999;DHT22;1509;51.964;7.628;2023-01-26T05:28:15;-0.70;99.90
2999;DHT22;1509;51.964;7.628;2023-01-26T05:30:40;-0.70;99.90
2999;DHT22;1509;51.964;7.628;2023-01-26T05:33:07;-0.70;99.90
2999;DHT22;1509;51.964;7.628;2023-01-26T05:35:33;-0.60;99.90
2999;DHT22;1509;51.964;7.628;2023-01-26T05:37:59;-0.70;99.90
2999;DHT22;1509;51.964;7.628;2023-01-26T05:50:16;-0.60;99.90
2999;DHT22;1509;51.964;7.628;2023-01-26T05:55:11;-0.60;99.90
2999;DHT22;1509;51.964;7.628;2023-01-26T05:57:37;-0.60;99.90
2999;DHT22;1509;51.964;7.628;2023-01-26T06:00:04;-0.60;99.90
2999;DHT22;1509;51.964;7.628;2023-01-26T06:04:56;-0.70;99.90
2999;DHT22;1509;51.964;7.628;2023-01-26T06:07:22;-0.80;99.90
2999;DHT22;1509;51.964;7.628;2023-01-26T06:09:47;-0.90;99.90
2999;DHT22;1509;51.964;7.628;2023-01-26T06:12:15;-0.90;99.90
2999;DHT22;1509;51.964;7.628;2023-01-26T06:14:41;-0.90;99.90
2999;DHT22;1509;51.964;7.628;2023-01-26T06:17:07;-0.90;99.90
2999;DHT22;1509;51.964;7.628;2023-01-26T06:22:00;-0.90;99.90
2999;DHT22;1509;51.964;7.628;2023-01-26T06:24:26;-0.90;99.90
2999;DHT22;1509;51.964;7.628;2023-01-26T06:26:51;-0.90;99.90
2999;DHT22;1509;51.964;7.628;2023-01-26T06:29:17;-0.90;99.90
2999;DHT22;1509;51.964;7.628;2023-01-26T06:31:42;-0.90;99.90
2999;DHT22;1509;51.964;7.628;2023-01-26T06:34:08;-0.90;99.90
2999;DHT22;1509;51.964;7.628;2023-01-26T06:36:35;-0.90;99.90
2999;DHT22;1509;51.964;7.628;2023-01-26T06:48:45;-0.70;99.90
2999;DHT22;1509;51.964;7.628;2023-01-26T06:53:48;-0.60;99.90
2999;DHT22;1509;51.964;7.628;2023-01-26T06:58:41;-0.60;99.90
2999;DHT22;1509;51.964;7.628;2023-01-26T07:01:16;-0.70;99.90
2999;DHT22;1509;51.964;7.628;2023-01-26T08:02:21;-0.40;99.90
2999;DHT22;1509;51.964;7.628;2023-01-26T08:17:01;-0.20;99.90
2999;DHT22;1509;51.964;7.628;2023-01-26T08:21:52;-0.20;99.90
2999;DHT22;1509;51.964;7.628;2023-01-26T08:26:45;-0.20;99.90
2999;DHT22;1509;51.964;7.628;2023-01-26T08:36:29;-0.10;99.90
2999;DHT22;1509;51.964;7.628;2023-01-26T08:38:54;0.00;99.90
2999;DHT22;1509;51.964;7.628;2023-01-26T08:41:20;0.30;99.90
2999;DHT22;1509;51.964;7.628;2023-01-26T08:51:05;0.00;99.90
2999;DHT22;1509;51.964;7.628;2023-01-26T08:53:32;0.10;99.90
2999;DHT22;1509;51.964;7.628;2023-01-26T08:58:40;0.20;99.90
2999;DHT22;1509;51.964;7.628;2023-01-26T09:01:11;0.20;99.90
2999;DHT22;1509;51.964;7.628;2023-01-26T09:06:05;0.20;99.90
2999;DHT22;1509;51.964;7.628;2023-01-26T09:08:35;0.20;99.90
2999;DHT22;1509;51.964;7.628;2023-01-26T09:11:01;0.20;99.90
2999;DHT22;1509;51.964;7.628;2023-01-26T09:13:27;0.50;99.90
2999;DHT22;1509;51.964;7.628;2023-01-26T09:15:53;0.20;99.90
2999;DHT22;1509;51.964;7.628;2023-01-26T09:18:18;0.20;99.90
2999;DHT22;1509;51.964;7.628;2023-01-26T09:20:44;0.30;99.90
2999;DHT22;1509;51.964;7.628;2023-01-26T09:23:10;0.30;99.90
2999;DHT22;1509;51.964;7.628;2023-01-26T09:25:37;0.30;99.90
2999;DHT22;1509;51.964;7.628;2023-01-26T09:28:04;0.30;99.90
2999;DHT22;1509;51.964;7.628;2023-01-26T09:30:30;0.30;99.90
2999;DHT22;1509;51.964;7.628;2023-01-26T09:33:02;0.30;99.90
2999;DHT22;1509;51.964;7.628;2023-01-26T09:35:29;0.30;99.90
2999;DHT22;1509;51.964;7.628;2023-01-26T09:37:55;0.30;99.90
2999;DHT22;1509;51.964;7.628;2023-01-26T09:51:40;0.40;99.90
2999;DHT22;1509;51.964;7.628;2023-01-26T09:54:31;0.40;99.90
2999;DHT22;1509;51.964;7.628;2023-01-26T09:57:00;0.40;99.90
2999;DHT22;1509;51.964;7.628;2023-01-26T09:59:35;0.40;99.90
2999;DHT22;1509;51.964;7.628;2023-01-26T10:04:44;0.50;99.90
2999;DHT22;1509;51.964;7.628;2023-01-26T10:07:12;0.50;99.90
2999;DHT22;1509;51.964;7.628;2023-01-26T10:09:40;0.50;99.90
2999;DHT22;1509;51.964;7.628;2023-01-26T10:12:23;0.50;99.90
2999;DHT22;1509;51.964;7.628;2023-01-26T10:15:06;0.50;99.90
2999;DHT22;1509;51.964;7.628;2023-01-26T10:17:40;0.50;99.90
2999;DHT22;1509;51.964;7.628;2023-01-26T10:20:22;0.60;99.90
2999;DHT22;1509;51.964;7.628;2023-01-26T10:22:54;0.60;99.90
2999;DHT22;1509;51.964;7.628;2023-01-26T10:25:28;0.50;99.90
2999;DHT22;1509;51.964;7.628;2023-01-26T10:27:55;0.60;99.90
2999;DHT22;1509;51.964;7.628;2023-01-26T10:30:21;0.60;99.90
2999;DHT22;1509;51.964;7.628;2023-01-26T10:32:50;0.60;99.90
2999;DHT22;1509;51.964;7.628;2023-01-26T10:35:19;0.60;99.90
2999;DHT22;1509;51.964;7.628;2023-01-26T10:37:45;0.60;99.90
2999;DHT22;1509;51.964;7.628;2023-01-26T10:40:11;0.70;99.90
2999;DHT22;1509;51.964;7.628;2023-01-26T10:42:39;0.70;99.90
2999;DHT22;1509;51.964;7.628;2023-01-26T10:45:27;0.70;99.90
2999;DHT22;1509;51.964;7.628;2023-01-26T10:50:36;0.70;99.90
2999;DHT22;1509;51.964;7.628;2023-01-26T10:53:04;0.70;99.90
2999;DHT22;1509;51.964;7.628;2023-01-26T10:55:34;0.80;99.90
2999;DHT22;1509;51.964;7.628;2023-01-26T10:58:01;0.80;99.90
2999;DHT22;1509;51.964;7.628;2023-01-26T11:00:29;0.90;99.90
2999;DHT22;1509;51.964;7.628;2023-01-26T11:05:28;0.80;99.90
2999;DHT22;1509;51.964;7.628;2023-01-26T11:07:55;0.90;99.90
2999;DHT22;1509;51.964;7.628;2023-01-26T11:10:37;0.90;99.90
2999;DHT22;1509;51.964;7.628;2023-01-26T11:13:12;0.90;99.90
2999;DHT22;1509;51.964;7.628;2023-01-26T11:15:40;0.90;99.90
2999;DHT22;1509;51.964;7.628;2023-01-26T11:21:00;0.90;99.90
2999;DHT22;1509;51.964;7.628;2023-01-26T11:32:31;1.10;99.90
2999;DHT22;1509;51.964;7.628;2023-01-26T11:37:47;1.10;99.90
2999;DHT22;1509;51.964;7.628;2023-01-26T11:51:22;1.20;99.90
2999;DHT22;1509;51.964;7.628;2023-01-26T11:54:18;1.20;99.90
2999;DHT22;1509;51.964;7.628;2023-01-26T11:59:35;1.40;99.90
2999;DHT22;1509;51.964;7.628;2023-01-26T12:02:24;1.40;99.90
2999;DHT22;1509;51.964;7.628;2023-01-26T12:04:51;1.30;99.90
2999;DHT22;1509;51.964;7.628;2023-01-26T12:07:44;1.30;99.90
2999;DHT22;1509;51.964;7.628;2023-01-26T12:10:46;1.30;99.90
2999;DHT22;1509;51.964;7.628;2023-01-26T12:15:57;1.50;99.90
2999;DHT22;1509;51.964;7.628;2023-01-26T12:18:34;1.50;99.90
2999;DHT22;1509;51.964;7.628;2023-01-26T12:21:09;1.50;99.90
2999;DHT22;1509;51.964;7.628;2023-01-26T12:26:15;1.50;99.90
2999;DHT22;1509;51.964;7.628;2023-01-26T12:29:05;1.50;99.90
2999;DHT22;1509;51.964;7.628;2023-01-26T12:31:55;1.60;99.90
2999;DHT22;1509;51.964;7.628;2023-01-26T12:34:26;1.60;99.90
2999;DHT22;1509;51.964;7.628;2023-01-26T12:42:50;1.70;99.90
2999;DHT22;1509;51.964;7.628;2023-01-26T12:45:27;1.70;99.90
2999;DHT22;1509;51.964;7.628;2023-01-26T12:47:59;1.70;99.90
2999;DHT22;1509;51.964;7.628;2023-01-26T12:53:17;1.70;99.90
2999;DHT22;1509;51.964;7.628;2023-01-26T12:56:01;1.70;99.90
2999;DHT22;1509;51.964;7.628;2023-01-26T12:58:39;1.80;99.90
2999;DHT22;1509;51.964;7.628;2023-01-26T13:01:17;1.80;99.90
2999;DHT22;1509;51.964;7.628;2023-01-26T13:04:01;1.90;99.90
2999;DHT22;1509;51.964;7.628;2023-01-26T13:06:28;1.80;99.90
2999;DHT22;1509;51.964;7.628;2023-01-26T13:24:57;2.00;99.90
2999;DHT22;1509;51.964;7.628;2023-01-26T13:29:53;2.10;99.90
2999;DHT22;1509;51.964;7.628;2023-01-26T13:34:51;2.30;99.90
2999;DHT22;1509;51.964;7.628;2023-01-26T13:40:35;2.30;99.90
2999;DHT22;1509;51.964;7.628;2023-01-26T13:51:21;2.50;99.90
2999;DHT22;1509;51.964;7.628;2023-01-26T13:53:54;2.50;99.90
2999;DHT22;1509;51.964;7.628;2023-01-26T13:59:06;2.70;99.90
2999;DHT22;1509;51.964;7.628;2023-01-26T14:01:32;2.80;99.90
2999;DHT22;1509;51.964;7.628;2023-01-26T14:04:03;2.80;99.90
2999;DHT22;1509;51.964;7.628;2023-01-26T14:06:29;2.90;99.90
2999;DHT22;1509;51.964;7.628;2023-01-26T14:08:55;2.90;99.90
2999;DHT22;1509;51.964;7.628;2023-01-26T14:11:23;3.00;99.90
2999;DHT22;1509;51.964;7.628;2023-01-26T14:13:56;3.10;99.90
2999;DHT22;1509;51.964;7.628;2023-01-26T14:16:31;3.20;99.90
2999;DHT22;1509;51.964;7.628;2023-01-26T14:21:31;3.20;99.90
2999;DHT22;1509;51.964;7.628;2023-01-26T14:23:57;3.30;99.90
2999;DHT22;1509;51.964;7.628;2023-01-26T14:26:31;3.30;99.90
2999;DHT22;1509;51.964;7.628;2023-01-26T14:28:58;3.30;99.90
2999;DHT22;1509;51.964;7.628;2023-01-26T14:31:26;3.30;99.90
2999;DHT22;1509;51.964;7.628;2023-01-26T14:33:55;3.40;99.90
2999;DHT22;1509;51.964;7.628;2023-01-26T14:36:24;3.40;99.90
2999;DHT22;1509;51.964;7.628;2023-01-26T14:38:52;3.50;99.90
2999;DHT22;1509;51.964;7.628;2023-01-26T14:41:28;3.50;99.90
2999;DHT22;1509;51.964;7.628;2023-01-26T14:43:56;3.50;99.90
2999;DHT22;1509;51.964;7.628;2023-01-26T14:46:44;3.50;99.90
2999;DHT22;1509;51.964;7.628;2023-01-26T14:49:45;3.60;99.90
2999;DHT22;1509;51.964;7.628;2023-01-26T14:52:35;3.60;99.90
2999;DHT22;1509;51.964;7.628;2023-01-26T14:55:15;3.60;99.90
2999;DHT22;1509;51.964;7.628;2023-01-26T14:57:42;3.70;99.90
2999;DHT22;1509;51.964;7.628;2023-01-26T15:00:19;3.70;99.90
2999;DHT22;1509;51.964;7.628;2023-01-26T15:02:47;3.70;99.90
2999;DHT22;1509;51.964;7.628;2023-01-26T15:05:16;3.70;99.90
2999;DHT22;1509;51.964;7.628;2023-01-26T15:08:00;3.70;99.90
2999;DHT22;1509;51.964;7.628;2023-01-26T15:13:01;3.70;99.90
2999;DHT22;1509;51.964;7.628;2023-01-26T15:15:33;3.70;99.90
2999;DHT22;1509;51.964;7.628;2023-01-26T15:18:20;3.70;99.90
2999;DHT22;1509;51.964;7.628;2023-01-26T15:21:14;3.70;99.90
2999;DHT22;1509;51.964;7.628;2023-01-26T15:23:42;3.70;99.90
2999;DHT22;1509;51.964;7.628;2023-01-26T15:26:32;3.70;99.90
2999;DHT22;1509;51.964;7.628;2023-01-26T15:29:02;3.70;99.90
2999;DHT22;1509;51.964;7.628;2023-01-26T15:31:34;3.70;99.90
2999;DHT22;1509;51.964;7.628;2023-01-26T15:34:01;3.80;99.90
2999;DHT22;1509;51.964;7.628;2023-01-26T15:39:00;3.80;99.90
2999;DHT22;1509;51.964;7.628;2023-01-26T15:41:26;3.80;99.90
2999;DHT22;1509;51.964;7.628;2023-01-26T15:43:52;3.80;99.90
2999;DHT22;1509;51.964;7.628;2023-01-26T15:46:18;3.80;99.90
2999;DHT22;1509;51.964;7.628;2023-01-26T15:48:43;3.80;99.90
2999;DHT22;1509;51.964;7.628;2023-01-26T15:51:13;3.80;99.90
2999;DHT22;1509;51.964;7.628;2023-01-26T15:53:39;3.80;99.90
2999;DHT22;1509;51.964;7.628;2023-01-26T15:56:05;3.80;99.90
2999;DHT22;1509;51.964;7.628;2023-01-26T15:58:33;3.80;99.90
2999;DHT22;1509;51.964;7.628;2023-01-26T16:01:01;3.90;99.90
2999;DHT22;1509;51.964;7.628;2023-01-26T16:03:26;3.90;99.90
2999;DHT22;1509;51.964;7.628;2023-01-26T16:05:54;3.90;99.90
2999;DHT22;1509;51.964;7.628;2023-01-26T16:08:20;3.90;99.90
2999;DHT22;1509;51.964;7.628;2023-01-26T16:10:46;3.90;99.90
2999;DHT22;1509;51.964;7.628;2023-01-26T16:13:17;3.90;99.90
2999;DHT22;1509;51.964;7.628;2023-01-26T16:15:51;4.00;99.90
2999;DHT22;1509;51.964;7.628;2023-01-26T16:18:18;4.00;99.90
2999;DHT22;1509;51.964;7.628;2023-01-26T16:20:46;4.00;99.90
2999;DHT22;1509;51.964;7.628;2023-01-26T16:23:20;4.00;99.90
2999;DHT22;1509;51.964;7.628;2023-01-26T16:25:46;4.00;99.90
2999;DHT22;1509;51.964;7.628;2023-01-26T16:28:13;4.10;99.90
2999;DHT22;1509;51.964;7.628;2023-01-26T16:30:41;4.10;99.90
2999;DHT22;1509;51.964;7.628;2023-01-26T16:33:10;4.10;99.90
2999;DHT22;1509;51.964;7.628;2023-01-26T16:35:36;4.10;99.90
2999;DHT22;1509;51.964;7.628;2023-01-26T16:38:04;4.10;99.90
2999;DHT22;1509;51.964;7.628;2023-01-26T16:40:31;4.10;99.90
2999;DHT22;1509;51.964;7.628;2023-01-26T16:42:58;4.10;99.90
2999;DHT22;1509;51.964;7.628;2023-01-26T16:45:25;4.20;99.90
2999;DHT22;1509;51.964;7.628;2023-01-26T16:47:55;4.20;99.90
2999;DHT22;1509;51.964;7.628;2023-01-26T16:50:22;4.20;99.90
2999;DHT22;1509;51.964;7.628;2023-01-26T16:52:49;4.20;99.90
2999;DHT22;1509;51.964;7.628;2023-01-26T16:55:15;4.20;99.90
2999;DHT22;1509;51.964;7.628;2023-01-26T16:57:42;4.30;99.90
2999;DHT22;1509;51.964;7.628;2023-01-26T17:00:20;4.30;99.90
2999;DHT22;1509;51.964;7.628;2023-01-26T17:02:47;4.30;99.90
2999;DHT22;1509;51.964;7.628;2023-01-26T17:05:16;4.30;99.90
2999;DHT22;1509;51.964;7.628;2023-01-26T17:07:42;4.30;99.90
2999;DHT22;1509;51.964;7.628;2023-01-26T17:10:09;4.30;99.90
2999;DHT22;1509;51.964;7.628;2023-01-26T17:12:35;4.30;99.90
2999;DHT22;1509;51.964;7.628;2023-01-26T17:15:01;4.30;99.90
2999;DHT22;1509;51.964;7.628;2023-01-26T17:17:26;4.40;99.90
2999;DHT22;1509;51.964;7.628;2023-01-26T17:19:52;4.40;99.90
2999;DHT22;1509;51.964;7.628;2023-01-26T17:22:17;4.40;99.90
2999;DHT22;1509;51.964;7.628;2023-01-26T17:24:43;4.40;99.90
2999;DHT22;1509;51.964;7.628;2023-01-26T17:27:09;4.50;99.90
2999;DHT22;1509;51.964;7.628;2023-01-26T17:29:41;4.50;99.90
2999;DHT22;1509;51.964;7.628;2023-01-26T17:32:07;4.50;99.90
2999;DHT22;1509;51.964;7.628;2023-01-26T17:34:33;4.50;99.90
2999;DHT22;1509;51.964;7.628;2023-01-26T17:36:58;4.60;99.90
2999;DHT22;1509;51.964;7.628;2023-01-26T17:39:25;4.60;99.90
2999;DHT22;1509;51.964;7.628;2023-01-26T17:41:51;4.60;99.90
2999;DHT22;1509;51.964;7.628;2023-01-26T17:44:18;4.60;99.90
2999;DHT22;1509;51.964;7.628;2023-01-26T17:46:44;4.60;99.90
2999;DHT22;1509;51.964;7.628;2023-01-26T17:49:09;4.60;99.90
2999;DHT22;1509;51.964;7.628;2023-01-26T17:51:35;4.70;99.90
2999;DHT22;1509;51.964;7.628;2023-01-26T17:54:03;4.70;99.90
2999;DHT22;1509;51.964;7.628;2023-01-26T17:56:30;4.70;99.90
2999;DHT22;1509;51.964;7.628;2023-01-26T17:58:58;4.70;99.90
2999;DHT22;1509;51.964;7.628;2023-01-26T18:01:25;4.70;99.90
2999;DHT22;1509;51.964;7.628;2023-01-26T18:03:51;4.70;99.90
2999;DHT22;1509;51.964;7.628;2023-01-26T18:06:18;4.70;99.90
2999;DHT22;1509;51.964;7.628;2023-01-26T18:08:43;4.70;99.90
2999;DHT22;1509;51.964;7.628;2023-01-26T18:11:11;4.70;99.90
2999;DHT22;1509;51.964;7.628;2023-01-26T18:13:37;4.70;99.90
2999;DHT22;1509;51.964;7.628;2023-01-26T18:16:08;4.70;99.90
2999;DHT22;1509;51.964;7.628;2023-01-26T18:18:34;4.70;99.90
2999;DHT22;1509;51.964;7.628;2023-01-26T18:21:18;4.70;99.90
2999;DHT22;1509;51.964;7.628;2023-01-26T18:23:48;4.70;99.90
2999;DHT22;1509;51.964;7.628;2023-01-26T18:26:15;4.80;99.90
2999;DHT22;1509;51.964;7.628;2023-01-26T18:28:42;4.80;99.90
2999;DHT22;1509;51.964;7.628;2023-01-26T18:31:10;4.70;99.90
2999;DHT22;1509;51.964;7.628;2023-01-26T18:33:35;4.70;99.90
2999;DHT22;1509;51.964;7.628;2023-01-26T18:36:03;4.80;99.90
2999;DHT22;1509;51.964;7.628;2023-01-26T18:38:29;4.70;99.90
2999;DHT22;1509;51.964;7.628;2023-01-26T18:40:54;4.70;99.90
2999;DHT22;1509;51.964;7.628;2023-01-26T18:43:20;4.70;99.90
2999;DHT22;1509;51.964;7.628;2023-01-26T18:45:46;4.70;99.90
2999;DHT22;1509;51.964;7.628;2023-01-26T18:48:11;4.70;99.90
2999;DHT22;1509;51.964;7.628;2023-01-26T18:50:37;4.70;99.90
2999;DHT22;1509;51.964;7.628;2023-01-26T18:53:03;4.70;99.90
2999;DHT22;1509;51.964;7.628;2023-01-26T18:55:29;4.70;99.90
2999;DHT22;1509;51.964;7.628;2023-01-26T18:58:01;4.70;99.90
2999;DHT22;1509;51.964;7.628;2023-01-26T19:00:27;4.70;99.90
2999;DHT22;1509;51.964;7.628;2023-01-26T19:02:52;4.80;99.90
2999;DHT22;1509;51.964;7.628;2023-01-26T19:05:18;4.70;99.90
2999;DHT22;1509;51.964;7.628;2023-01-26T19:07:44;4.70;99.90
2999;DHT22;1509;51.964;7.628;2023-01-26T19:10:10;4.70;99.90
2999;DHT22;1509;51.964;7.628;2023-01-26T19:12:35;4.70;99.90
2999;DHT22;1509;51.964;7.628;2023-01-26T19:15:01;4.80;99.90
2999;DHT22;1509;51.964;7.628;2023-01-26T19:17:27;4.80;99.90
2999;DHT22;1509;51.964;7.628;2023-01-26T19:19:53;4.70;99.90
2999;DHT22;1509;51.964;7.628;2023-01-26T19:22:19;4.80;99.90
2999;DHT22;1509;51.964;7.628;2023-01-26T19:24:45;4.80;99.90
2999;DHT22;1509;51.964;7.628;2023-01-26T19:27:11;4.80;99.90
2999;DHT22;1509;51.964;7.628;2023-01-26T19:29:37;4.80;99.90
2999;DHT22;1509;51.964;7.628;2023-01-26T19:32:02;4.70;99.90
2999;DHT22;1509;51.964;7.628;2023-01-26T19:34:28;4.70;99.90
2999;DHT22;1509;51.964;7.628;2023-01-26T19:36:56;4.70;99.90
2999;DHT22;1509;51.964;7.628;2023-01-26T19:39:21;4.80;99.90
2999;DHT22;1509;51.964;7.628;2023-01-26T19:41:47;4.70;99.90
2999;DHT22;1509;51.964;7.628;2023-01-26T19:44:14;4.80;99.90
2999;DHT22;1509;51.964;7.628;2023-01-26T19:46:40;4.80;99.90
2999;DHT22;1509;51.964;7.628;2023-01-26T19:49:05;4.70;99.90
2999;DHT22;1509;51.964;7.628;2023-01-26T19:51:38;4.80;99.90
2999;DHT22;1509;51.964;7.628;2023-01-26T19:54:04;4.80;99.90
2999;DHT22;1509;51.964;7.628;2023-01-26T19:56:31;4.80;99.90
2999;DHT22;1509;51.964;7.628;2023-01-26T19:59:01;4.80;99.90
2999;DHT22;1509;51.964;7.628;2023-01-26T20:01:29;4.80;99.90
2999;DHT22;1509;51.964;7.628;2023-01-26T20:03:57;4.80;99.90
2999;DHT22;1509;51.964;7.628;2023-01-26T20:06:26;4.70;99.90
2999;DHT22;1509;51.964;7.628;2023-01-26T20:08:53;4.70;99.90
2999;DHT22;1509;51.964;7.628;2023-01-26T20:11:22;4.80;99.90
2999;DHT22;1509;51.964;7.628;2023-01-26T20:13:57;4.80;99.90
2999;DHT22;1509;51.964;7.628;2023-01-26T20:16:24;4.70;99.90
2999;DHT22;1509;51.964;7.628;2023-01-26T20:18:52;4.70;99.90
2999;DHT22;1509;51.964;7.628;2023-01-26T20:21:18;4.70;99.90
2999;DHT22;1509;51.964;7.628;2023-01-26T20:23:43;4.70;99.90
2999;DHT22;1509;51.964;7.628;2023-01-26T20:26:10;4.70;99.90
2999;DHT22;1509;51.964;7.628;2023-01-26T20:28:37;4.70;99.90
2999;DHT22;1509;51.964;7.628;2023-01-26T20:31:08;4.70;99.90
2999;DHT22;1509;51.964;7.628;2023-01-26T20:33:34;4.70;99.90
2999;DHT22;1509;51.964;7.628;2023-01-26T20:36:04;4.70;99.90
2999;DHT22;1509;51.964;7.628;2023-01-26T20:38:30;4.70;99.90
2999;DHT22;1509;51.964;7.628;2023-01-26T20:40:56;4.70;99.90
2999;DHT22;1509;51.964;7.628;2023-01-26T20:43:22;4.70;99.90
2999;DHT22;1509;51.964;7.628;2023-01-26T20:45:47;4.70;99.90
2999;DHT22;1509;51.964;7.628;2023-01-26T20:48:13;4.70;99.90
2999;DHT22;1509;51.964;7.628;2023-01-26T20:50:38;4.70;99.90
2999;DHT22;1509;51.964;7.628;2023-01-26T20:53:08;4.70;99.90
2999;DHT22;1509;51.964;7.628;2023-01-26T20:55:37;4.60;99.90
2999;DHT22;1509;51.964;7.628;2023-01-26T20:58:02;4.60;99.90
2999;DHT22;1509;51.964;7.628;2023-01-26T21:00:29;4.70;99.90
2999;DHT22;1509;51.964;7.628;2023-01-26T21:02:55;4.70;99.90
2999;DHT22;1509;51.964;7.628;2023-01-26T21:05:20;4.70;99.90
2999;DHT22;1509;51.964;7.628;2023-01-26T21:07:46;4.70;99.90